Time;durP1;ratioP1;P1;durP2;ratioP2;P2;SDS_P1;SDS_P2;PMS_P1;PMS_P2;Temp;Humidity;BMP_temperature;BMP_pressure;BME280_temperature;BME280_humidity;BME280_pressure;Samples;Min_cycle;Max_cycle;Signal;HPM_P1;HPM_P2
2022/10/07 00:00:52;;;;;;;1999.90;999.90;;;;;;;14.58;100.00;96027.53;5095830;28;20176;-59
2022/10/07 00:03:19;;;;;;;1999.90;999.90;;;;;;;14.48;100.00;96024.91;5095475;28;20177;-59
2022/10/07 00:05:45;;;;;;;1999.90;999.90;;;;;;;14.52;100.00;96029.19;5096028;28;20200;-59
2022/10/07 00:08:10;;;;;;;1999.90;999.90;;;;;;;14.51;100.00;96030.38;5096171;28;20179;-58
2022/10/07 00:10:38;;;;;;;1999.90;999.90;;;;;;;14.57;100.00;96025.97;5095773;28;20203;-57
2022/10/07 00:13:04;;;;;;;1999.90;999.90;;;;;;;14.57;100.00;96025.97;5095525;28;20172;-56
2022/10/07 00:15:29;;;;;;;1999.90;999.90;;;;;;;14.59;100.00;96023.59;5096494;28;20206;-54
2022/10/07 00:17:54;;;;;;;1999.90;999.90;;;;;;;14.44;100.00;96024.97;5095836;28;20578;-56
2022/10/07 00:20:20;;;;;;;1999.90;999.90;;;;;;;14.49;100.00;96018.25;5095911;28;20263;-57
2022/10/07 00:22:45;;;;;;;1999.90;999.90;;;;;;;14.51;100.00;96011.16;5095965;28;20286;-56
2022/10/07 00:25:10;;;;;;;1999.90;999.90;;;;;;;14.46;100.00;96014.34;5096546;28;20204;-55
2022/10/07 00:27:36;;;;;;;1999.90;999.90;;;;;;;14.47;100.00;96010.41;5096530;28;20183;-57
2022/10/07 00:30:01;;;;;;;1999.90;999.90;;;;;;;14.46;100.00;96006.09;5095813;28;20181;-57
2022/10/07 00:32:26;;;;;;;1999.90;999.90;;;;;;;14.41;100.00;96003.81;5095639;28;20214;-57
2022/10/07 00:34:52;;;;;;;1999.90;999.90;;;;;;;14.36;100.00;96004.28;5095295;28;20168;-57
2022/10/07 00:37:17;;;;;;;1999.90;999.90;;;;;;;14.39;100.00;95997.94;5095468;28;20173;-57
2022/10/07 00:39:42;;;;;;;1999.90;999.90;;;;;;;14.36;100.00;95998.00;5095506;28;20177;-57
2022/10/07 00:42:12;;;;;;;1999.90;999.90;;;;;;;14.35;100.00;95997.22;5096254;28;20176;-56
2022/10/07 00:44:41;;;;;;;1999.90;999.90;;;;;;;14.32;100.00;95992.56;5095669;28;20226;-57
2022/10/07 00:47:33;;;;;;;1999.90;999.90;;;;;;;14.33;100.00;95983.13;5096043;28;20180;-67
2022/10/07 00:50:06;;;;;;;1999.90;999.90;;;;;;;14.35;100.00;95986.22;5095224;28;20177;-65
2022/10/07 00:52:36;;;;;;;1999.90;999.90;;;;;;;14.32;100.00;95991.78;5095811;28;20172;-65
2022/10/07 00:55:06;;;;;;;1999.90;999.90;;;;;;;14.33;100.00;95988.63;5095173;28;20687;-65
2022/10/07 00:57:32;;;;;;;1999.90;999.90;;;;;;;14.32;100.00;95981.56;5095714;28;20230;-66
2022/10/07 00:59:59;;;;;;;1999.90;999.90;;;;;;;14.28;100.00;95980.06;5094713;28;20199;-66
2022/10/07 01:02:26;;;;;;;1999.90;999.90;;;;;;;14.20;100.00;95979.31;5094903;28;20176;-66
2022/10/07 01:04:53;;;;;;;1999.90;999.90;;;;;;;14.21;100.00;95980.09;5094917;28;20184;-57
2022/10/07 01:07:20;;;;;;;1999.90;999.90;;;;;;;14.18;100.00;95970.72;5094985;28;20177;-58
2022/10/07 01:09:52;;;;;;;1999.90;999.90;;;;;;;14.14;100.00;95972.75;5094882;28;20260;-57
2022/10/07 01:12:39;;;;;;;1999.90;999.90;;;;;;;14.07;100.00;95969.28;5095689;28;20176;-58
2022/10/07 01:15:29;;;;;;;1999.90;999.90;;;;;;;14.10;100.00;95974.75;5093836;28;20243;-57
2022/10/07 01:18:30;;;;;;;1999.90;999.90;;;;;;;14.13;100.00;95962.91;5095366;28;20165;-57
2022/10/07 01:21:15;;;;;;;1999.90;999.90;;;;;;;14.20;100.00;95951.09;5094714;28;20267;-57
2022/10/07 01:24:23;;;;;;;1999.90;999.90;;;;;;;14.17;100.00;95944.44;5094597;28;20555;-59
2022/10/07 01:27:08;;;;;;;1999.90;999.90;;;;;;;14.08;100.00;95949.66;5073309;28;20180;-58
2022/10/07 01:29:54;;;;;;;1999.90;999.90;;;;;;;14.04;100.00;95951.69;5095055;28;20298;-58
2022/10/07 01:32:32;;;;;;;1999.90;999.90;;;;;;;14.02;100.00;95950.53;5094504;28;20183;-59
2022/10/07 01:34:59;;;;;;;1999.90;999.90;;;;;;;13.99;100.00;95946.63;5094441;28;20294;-58
2022/10/07 01:37:30;;;;;;;1999.90;999.90;;;;;;;13.83;100.00;95946.44;5094751;28;20678;-58
2022/10/07 01:40:01;;;;;;;1999.90;999.90;;;;;;;13.80;100.00;95950.00;5095117;28;20261;-57
2022/10/07 01:42:28;;;;;;;1999.90;999.90;;;;;;;13.78;100.00;95948.84;5095036;28;20157;-57
2022/10/07 01:44:56;;;;;;;1999.90;999.90;;;;;;;13.69;100.00;95948.56;5094312;28;20169;-70
2022/10/07 01:47:24;;;;;;;1999.90;999.90;;;;;;;13.60;100.00;95946.31;5094778;28;20204;-72
2022/10/07 01:49:50;;;;;;;1999.90;999.90;;;;;;;13.50;100.00;95944.44;5093954;28;20352;-71
2022/10/07 01:52:47;;;;;;;1999.90;999.90;;;;;;;13.42;100.00;95948.47;5094433;28;20175;-71
2022/10/07 01:55:33;;;;;;;1999.90;999.90;;;;;;;13.36;100.00;95943.84;5094491;28;20236;-71
2022/10/07 01:58:30;;;;;;;1999.90;999.90;;;;;;;13.29;100.00;95941.91;5094579;28;20164;-71
2022/10/07 02:01:39;;;;;;;1999.90;999.90;;;;;;;13.23;100.00;95933.34;5094714;28;20176;-55
2022/10/07 02:04:38;;;;;;;1999.90;999.90;;;;;;;13.20;100.00;95927.91;5063690;28;20222;-70
2022/10/07 02:07:43;;;;;;;1999.90;999.90;;;;;;;13.16;100.00;95927.16;5094377;28;20165;-70
2022/10/07 02:10:14;;;;;;;1999.90;999.90;;;;;;;13.11;100.00;95925.63;5093709;28;20220;-70
2022/10/07 02:12:46;;;;;;;1999.90;999.90;;;;;;;13.04;100.00;95931.19;5093453;28;20180;-70
2022/10/07 02:15:23;;;;;;;1999.90;999.90;;;;;;;13.01;100.00;95928.50;5094017;28;20224;-67
2022/10/07 02:17:53;;;;;;;1999.90;999.90;;;;;;;12.96;100.00;95912.44;5094338;28;20206;-54
2022/10/07 02:20:22;;;;;;;1999.90;999.90;;;;;;;12.96;100.00;95913.22;5093851;28;20167;-58
2022/10/07 02:22:50;;;;;;;1999.90;999.90;;;;;;;12.95;100.00;95906.19;5093558;28;20214;-58
2022/10/07 02:25:18;;;;;;;1999.90;999.90;;;;;;;12.93;100.00;95908.53;5094022;28;20161;-58
2022/10/07 02:27:46;;;;;;;1999.90;999.90;;;;;;;12.92;100.00;95901.50;5093182;28;20171;-58
2022/10/07 02:30:15;;;;;;;1999.90;999.90;;;;;;;12.88;100.00;95891.75;5093844;28;20178;-58
2022/10/07 02:32:46;;;;;;;1999.90;999.90;;;;;;;12.86;100.00;95886.66;5093188;28;20187;-58
2022/10/07 02:35:24;;;;;;;1999.90;999.90;;;;;;;12.82;100.00;95874.19;5094058;28;20199;-60
2022/10/07 02:37:53;;;;;;;1999.90;999.90;;;;;;;12.80;100.00;95879.28;5093450;28;20621;-58
2022/10/07 02:40:20;;;;;;;1999.90;999.90;;;;;;;12.75;100.00;95877.00;5094184;28;20171;-59
2022/10/07 02:42:57;;;;;;;1999.90;999.90;;;;;;;12.73;100.00;95871.13;5093109;28;20174;-59
2022/10/07 02:45:30;;;;;;;1999.90;999.90;;;;;;;12.71;100.00;95868.00;5094119;28;20166;-59
2022/10/07 02:48:18;;;;;;;1999.90;999.90;;;;;;;12.67;100.00;95861.78;5094018;28;20172;-58
2022/10/07 02:50:50;;;;;;;1999.90;999.90;;;;;;;12.65;100.00;95864.94;5093401;28;20160;-58
2022/10/07 02:53:17;;;;;;;1999.90;999.90;;;;;;;12.63;100.00;95866.50;5093484;28;20188;-59
2022/10/07 02:55:43;;;;;;;1999.90;999.90;;;;;;;12.59;100.00;95865.78;5093169;28;20282;-56
2022/10/07 02:58:11;;;;;;;1999.90;999.90;;;;;;;12.56;100.00;95866.56;5094005;28;20200;-64
2022/10/07 03:00:39;;;;;;;1999.90;999.90;;;;;;;12.54;100.00;95866.22;5093724;28;20176;-64
2022/10/07 03:03:04;;;;;;;1999.90;999.90;;;;;;;12.48;100.00;95862.34;5093010;28;20179;-64
2022/10/07 03:05:33;;;;;;;1999.90;999.90;;;;;;;12.42;100.00;95855.75;5093065;28;20201;-64
2022/10/07 03:08:04;;;;;;;1999.90;999.90;;;;;;;12.38;100.00;95846.75;5093153;28;20172;-65
2022/10/07 03:10:30;;;;;;;1999.90;999.90;;;;;;;12.33;100.00;95849.94;5093415;28;20172;-65
2022/10/07 03:12:56;;;;;;;1999.90;999.90;;;;;;;12.27;100.00;95854.28;5093180;28;20267;-63
2022/10/07 03:15:22;;;;;;;1999.90;999.90;;;;;;;12.23;100.00;95853.53;5092951;28;20237;-67
2022/10/07 03:17:48;;;;;;;1999.90;999.90;;;;;;;12.18;100.00;95845.75;5093613;28;20175;-67
2022/10/07 03:20:14;;;;;;;1999.90;999.90;;;;;;;12.12;100.00;95853.63;5092929;28;20238;-67
2022/10/07 03:22:43;;;;;;;1999.90;999.90;;;;;;;12.06;100.00;95854.44;5093213;28;20176;-67
2022/10/07 03:25:12;;;;;;;1999.90;999.90;;;;;;;12.05;100.00;95855.59;5093348;28;20176;-67
2022/10/07 03:27:38;;;;;;;1999.90;999.90;;;;;;;11.99;100.00;95854.50;5092923;28;20162;-67
2022/10/07 03:30:04;;;;;;;1999.90;999.90;;;;;;;11.95;100.00;95849.03;5092641;28;20230;-66
2022/10/07 03:32:30;;;;;;;1999.90;999.90;;;;;;;11.90;100.00;95845.91;5092640;28;20220;-64
2022/10/07 03:34:55;;;;;;;1999.90;999.90;;;;;;;11.87;100.00;95839.31;5093692;28;20203;-70
2022/10/07 03:37:22;;;;;;;1999.90;999.90;;;;;;;11.85;100.00;95840.88;5092967;28;20180;-71
2022/10/07 03:39:49;;;;;;;1999.90;999.90;;;;;;;11.81;100.00;95807.28;5096334;28;20168;-69
2022/10/07 03:42:15;;;;;;;1999.90;999.90;;;;;;;11.76;100.00;95783.84;5096623;28;20181;-69
2022/10/07 03:44:40;;;;;;;1999.90;999.90;;;;;;;11.72;100.00;95785.84;5096462;28;20182;-68
2022/10/07 03:47:07;;;;;;;1999.90;999.90;;;;;;;11.67;100.00;95793.69;5096497;28;20179;-68
2022/10/07 03:49:33;;;;;;;1999.90;999.90;;;;;;;11.63;100.00;95803.88;5096458;28;20536;-69
2022/10/07 03:51:59;;;;;;;1999.90;999.90;;;;;;;11.59;100.00;95811.31;5096424;28;20175;-57
2022/10/07 03:54:25;;;;;;;1999.90;999.90;;;;;;;11.56;100.00;95812.09;5096202;28;20180;-57
2022/10/07 03:56:50;;;;;;;1999.90;999.90;;;;;;;11.48;100.00;95818.78;5097170;28;20194;-57
2022/10/07 03:59:16;;;;;;;1999.90;999.90;;;;;;;11.46;100.00;95821.91;5096188;28;20178;-57
2022/10/07 04:01:41;;;;;;;1999.90;999.90;;;;;;;11.45;100.00;95816.84;5096764;28;20166;-57
2022/10/07 04:04:06;;;;;;;1999.90;999.90;;;;;;;11.44;100.00;95818.03;5095997;28;20248;-57
2022/10/07 04:06:32;;;;;;;1999.90;999.90;;;;;;;11.41;100.00;95811.41;5096816;28;20184;-57
2022/10/07 04:08:58;;;;;;;1999.90;999.90;;;;;;;11.39;100.00;95807.47;5096085;28;20180;-58
2022/10/07 04:11:23;;;;;;;1999.90;999.90;;;;;;;11.34;100.00;95813.38;5096881;28;20232;-60
2022/10/07 04:13:49;;;;;;;1999.90;999.90;;;;;;;11.30;100.00;95812.59;5095563;28;20224;-59
2022/10/07 04:16:15;;;;;;;1999.90;999.90;;;;;;;11.27;100.00;95816.13;5095659;28;20245;-59
2022/10/07 04:18:43;;;;;;;1999.90;999.90;;;;;;;11.23;100.00;95807.16;5096143;28;20289;-60
2022/10/07 04:21:09;;;;;;;1999.90;999.90;;;;;;;11.20;100.00;95807.97;5096173;28;20200;-60
2022/10/07 04:23:35;;;;;;;1999.90;999.90;;;;;;;11.17;100.00;95806.00;5096277;28;20228;-63
2022/10/07 04:26:01;;;;;;;1999.90;999.90;;;;;;;11.09;100.00;95807.22;5095638;28;20182;-61
2022/10/07 04:28:26;;;;;;;1999.90;999.90;;;;;;;11.09;100.00;95802.53;5095738;28;20184;-59
2022/10/07 04:30:52;;;;;;;1999.90;999.90;;;;;;;11.07;100.00;95793.19;5095324;28;20188;-58
2022/10/07 04:33:20;;;;;;;1999.90;999.90;;;;;;;11.08;100.00;95783.81;5095462;28;20177;-58
2022/10/07 04:35:47;;;;;;;1999.90;999.90;;;;;;;11.04;100.00;95783.81;5095838;28;20197;-57
2022/10/07 04:38:14;;;;;;;1999.90;999.90;;;;;;;11.02;100.00;95774.44;5095486;28;20177;-57
2022/10/07 04:40:42;;;;;;;1999.90;999.90;;;;;;;10.99;100.00;95767.03;5096009;28;20166;-58
2022/10/07 04:43:19;;;;;;;1999.90;999.90;;;;;;;10.99;100.00;95758.84;5095034;28;20174;-58
2022/10/07 04:45:51;;;;;;;1999.90;999.90;;;;;;;10.90;100.00;95766.69;5095859;28;20181;-66
2022/10/07 04:48:17;;;;;;;1999.90;999.90;;;;;;;10.83;100.00;95766.72;5095721;28;20182;-58
2022/10/07 04:50:44;;;;;;;1999.90;999.90;;;;;;;10.84;100.00;95762.78;5095162;28;20197;-57
2022/10/07 04:53:13;;;;;;;1999.90;999.90;;;;;;;10.83;100.00;95755.78;5095666;28;20181;-57
2022/10/07 04:55:46;;;;;;;1999.90;999.90;;;;;;;10.85;100.00;95754.22;5095685;28;20200;-58
2022/10/07 04:58:13;;;;;;;1999.90;999.90;;;;;;;10.89;100.00;95748.75;5095166;28;20177;-57
2022/10/07 05:00:47;;;;;;;1999.90;999.90;;;;;;;10.94;100.00;95746.38;5095481;28;20197;-57
2022/10/07 05:03:14;;;;;;;1999.90;999.90;;;;;;;11.04;100.00;95745.53;5094504;28;20171;-54
2022/10/07 05:05:41;;;;;;;1999.90;999.90;;;;;;;11.12;100.00;95741.63;5095251;28;20214;-54
2022/10/07 05:08:07;;;;;;;1999.90;999.90;;;;;;;11.18;100.00;95739.25;5094859;28;20173;-51
2022/10/07 05:10:38;;;;;;;1999.90;999.90;;;;;;;11.23;100.00;95730.63;5094571;28;20230;-55
2022/10/07 05:13:05;;;;;;;1999.90;999.90;;;;;;;11.30;100.00;95733.31;5095064;28;20266;-53
2022/10/07 05:15:33;;;;;;;1999.90;999.90;;;;;;;11.38;100.00;95729.38;5094787;28;20206;-55
2022/10/07 05:17:59;;;;;;;1999.90;999.90;;;;;;;11.43;100.00;95726.19;5094655;28;20190;-56
2022/10/07 05:20:25;;;;;;;1999.90;999.90;;;;;;;11.49;100.00;95710.94;5095246;28;20184;-55
2022/10/07 05:22:50;;;;;;;1999.90;999.90;;;;;;;11.54;100.00;95713.25;5094602;28;20542;-58
2022/10/07 05:25:15;;;;;;;1999.90;999.90;;;;;;;11.56;100.00;95711.69;5094644;28;20179;-62
2022/10/07 05:27:41;;;;;;;1999.90;999.90;;;;;;;11.60;100.00;95708.91;5094260;28;20187;-60
2022/10/07 05:30:08;;;;;;;1999.90;999.90;;;;;;;11.65;100.00;95708.53;5094958;28;20175;-60
2022/10/07 05:32:33;;;;;;;1999.90;999.90;;;;;;;11.68;100.00;95696.75;5094215;28;20636;-59
2022/10/07 05:34:58;;;;;;;1999.90;999.90;;;;;;;11.74;100.00;95697.88;5094256;28;20198;-61
2022/10/07 05:37:24;;;;;;;1999.90;999.90;;;;;;;11.78;100.00;95684.97;5094142;28;20176;-59
2022/10/07 05:39:50;;;;;;;1999.90;999.90;;;;;;;11.81;100.00;95684.16;5095348;28;20172;-60
2022/10/07 05:42:16;;;;;;;1999.90;999.90;;;;;;;11.86;100.00;95686.44;5093949;28;20170;-59
2022/10/07 05:44:41;;;;;;;1999.90;999.90;;;;;;;11.93;100.00;95678.19;5094081;28;20172;-60
2022/10/07 05:47:07;;;;;;;1999.90;999.90;;;;;;;11.97;100.00;95678.94;5094233;28;20542;-59
2022/10/07 05:49:32;;;;;;;1999.90;999.90;;;;;;;12.02;100.00;95670.28;5094010;28;20292;-57
2022/10/07 05:51:57;;;;;;;1999.90;999.90;;;;;;;12.08;100.00;95671.38;5093762;28;20179;-57
2022/10/07 05:54:23;;;;;;;1999.90;999.90;;;;;;;12.12;100.00;95666.66;5093482;28;20209;-57
2022/10/07 05:56:48;;;;;;;1999.90;999.90;;;;;;;12.15;100.00;95671.31;5093701;28;20176;-60
2022/10/07 05:59:14;;;;;;;1999.90;999.90;;;;;;;12.20;100.00;95673.63;5093838;28;20179;-60
2022/10/07 06:01:41;;;;;;;1999.90;999.90;;;;;;;12.25;100.00;95664.97;5093376;28;20180;-57
2022/10/07 06:04:07;;;;;;;1999.90;999.90;;;;;;;12.24;100.00;95674.38;5093847;28;20206;-57
2022/10/07 06:06:34;;;;;;;1999.90;999.90;;;;;;;12.35;100.00;95675.81;5093578;28;20175;-57
2022/10/07 06:13:06;;;;;;;1999.90;999.90;;;;;;;12.34;100.00;95684.44;5093426;28;20172;-58
2022/10/07 06:14:32;;;;;;;1999.90;999.90;;;;;;;12.39;100.00;95681.25;5094931;28;20257;-57
2022/10/07 06:16:58;;;;;;;1999.90;999.90;;;;;;;12.45;100.00;95690.56;5092571;28;20645;-61
2022/10/07 06:19:23;;;;;;;1999.90;999.90;;;;;;;12.49;100.00;95696.78;5075728;28;20176;-58
2022/10/07 06:21:49;;;;;;;1999.90;999.90;;;;;;;12.59;100.00;95696.69;5092449;28;20275;-56
2022/10/07 06:24:14;;;;;;;1999.90;999.90;;;;;;;12.60;100.00;95709.19;5092526;28;20259;-56
2022/10/07 06:26:43;;;;;;;1999.90;999.90;;;;;;;12.70;100.00;95718.47;5075864;28;20223;-56
2022/10/07 06:29:08;;;;;;;1999.90;999.90;;;;;;;12.75;100.00;95718.81;5075966;28;20180;-55
2022/10/07 06:31:34;;;;;;;1999.90;999.90;;;;;;;12.85;100.00;95725.34;5092671;28;20189;-56
2022/10/07 06:34:00;;;;;;;1999.90;999.90;;;;;;;12.88;100.00;95727.28;5075623;28;20285;-53
2022/10/07 06:36:25;;;;;;;1999.90;999.90;;;;;;;12.93;100.00;95732.34;5092307;28;20338;-61
2022/10/07 06:38:54;;;;;;;1999.90;999.90;;;;;;;12.98;100.00;95734.63;5075994;28;20188;-59
2022/10/07 06:41:20;;;;;;;1999.90;999.90;;;;;;;13.05;100.00;95734.56;5092371;28;20177;-58
2022/10/07 06:43:46;;;;;;;1999.90;999.90;;;;;;;13.15;100.00;95741.88;5092385;28;20181;-59
2022/10/07 06:46:15;;;;;;;1999.90;999.90;;;;;;;13.17;100.00;95743.03;5075348;28;20181;-59
2022/10/07 06:48:41;;;;;;;1999.90;999.90;;;;;;;13.27;100.00;95735.84;5092928;28;20529;-60
2022/10/07 06:51:07;;;;;;;1999.90;999.90;;;;;;;13.33;100.00;95745.94;5093128;28;20176;-62
2022/10/07 06:53:33;;;;;;;1999.90;999.90;;;;;;;13.37;100.00;95756.09;5093558;28;20181;-65
2022/10/07 06:56:03;;;;;;;1999.90;999.90;;;;;;;13.42;100.00;95752.88;5093245;28;20207;-71
2022/10/07 06:58:28;;;;;;;1999.90;999.90;;;;;;;13.50;100.00;95755.13;5093279;28;20235;-68
2022/10/07 07:00:54;;;;;;;1999.90;999.90;;;;;;;13.60;100.00;95754.22;5093636;28;20188;-68
2022/10/07 07:03:20;;;;;;;1999.90;999.90;;;;;;;13.67;100.00;95748.63;5093198;28;20177;-71
2022/10/07 07:05:47;;;;;;;1999.90;999.90;;;;;;;13.78;100.00;95754.72;5092810;28;20229;-68
2022/10/07 07:08:14;;;;;;;1999.90;999.90;;;;;;;13.85;100.00;95754.63;5093038;28;20172;-69
2022/10/07 07:10:41;;;;;;;1999.90;999.90;;;;;;;13.89;100.00;95760.84;5093325;28;20194;-70
2022/10/07 07:13:08;;;;;;;1999.90;999.90;;;;;;;13.91;100.00;95760.44;5093571;28;20177;-62
2022/10/07 07:15:34;;;;;;;1999.90;999.90;;;;;;;14.04;100.00;95753.94;5096830;28;20292;-61
2022/10/07 07:18:00;;;;;;;1999.90;999.90;;;;;;;14.17;100.00;95757.63;5097034;28;20179;-61
2022/10/07 07:20:33;;;;;;;1999.90;999.90;;;;;;;14.17;100.00;95760.38;5096852;28;20169;-63
2022/10/07 07:22:59;;;;;;;1999.90;999.90;;;;;;;14.19;100.00;95748.97;5097421;28;20314;-61
2022/10/07 07:25:24;;;;;;;1999.90;999.90;;;;;;;14.34;100.00;95747.56;5096713;28;20192;-62
2022/10/07 07:27:50;;;;;;;1999.90;999.90;;;;;;;14.48;100.00;95748.13;5096933;28;20175;-61
2022/10/07 07:30:15;;;;;;;1999.90;999.90;;;;;;;14.48;100.00;95750.88;5096721;28;20176;-53
2022/10/07 07:32:40;;;;;;;1999.90;999.90;;;;;;;14.60;100.00;95750.25;5096729;28;20169;-61
2022/10/07 07:35:06;;;;;;;1999.90;999.90;;;;;;;14.69;100.00;95753.25;5096787;28;20315;-61
2022/10/07 07:37:32;;;;;;;1999.90;999.90;;;;;;;14.63;100.00;95756.88;5096564;28;20184;-61
2022/10/07 07:39:58;;;;;;;1999.90;999.90;;;;;;;14.61;100.00;95756.53;5096710;28;20225;-60
2022/10/07 07:42:26;;;;;;;1999.90;999.90;;;;;;;14.58;100.00;95784.88;5096909;28;20184;-60
2022/10/07 07:44:52;;;;;;;1999.90;999.90;;;;;;;14.64;100.00;95778.47;5096252;28;20267;-61
2022/10/07 07:47:17;;;;;;;1999.90;999.90;;;;;;;14.64;100.00;95780.44;5096466;28;20212;-60
2022/10/07 07:49:43;;;;;;;1999.90;999.90;;;;;;;14.74;100.00;95779.47;5096479;28;20200;-60
2022/10/07 07:52:09;;;;;;;1999.90;999.90;;;;;;;14.65;100.00;95780.03;5096160;28;20173;-60
2022/10/07 07:54:38;;;;;;;1999.90;999.90;;;;;;;14.60;100.00;95783.25;5095900;28;20226;-61
2022/10/07 07:57:03;;;;;;;1999.90;999.90;;;;;;;14.53;100.00;95777.09;5096924;28;20208;-61
2022/10/07 07:59:30;;;;;;;1999.90;999.90;;;;;;;14.53;100.00;95788.09;5096011;28;20173;-61
2022/10/07 08:01:56;;;;;;;1999.90;999.90;;;;;;;14.53;100.00;95786.09;5096326;28;20173;-62
2022/10/07 08:04:22;;;;;;;1999.90;999.90;;;;;;;14.61;100.00;95784.78;5096433;28;20197;-62
2022/10/07 08:06:48;;;;;;;1999.90;999.90;;;;;;;14.67;100.00;95785.88;5096000;28;20168;-68
2022/10/07 08:09:14;;;;;;;1999.90;999.90;;;;;;;14.75;100.00;95779.03;5113064;28;20180;-59
2022/10/07 08:11:41;;;;;;;1999.90;999.90;;;;;;;14.88;100.00;95785.50;5096183;28;20184;-67
2022/10/07 08:14:06;;;;;;;1999.90;999.90;;;;;;;14.82;100.00;95784.41;5096475;28;20220;-65
2022/10/07 08:16:33;;;;;;;1999.90;999.90;;;;;;;14.90;100.00;95787.81;5096117;28;20314;-65
2022/10/07 08:18:59;;;;;;;1999.90;999.90;;;;;;;14.83;100.00;95788.72;5096608;28;20176;-65
2022/10/07 08:21:26;;;;;;;1999.90;999.90;;;;;;;14.83;100.00;95796.97;5095790;28;20179;-65
2022/10/07 08:23:55;;;;;;;1999.90;999.90;;;;;;;14.92;100.00;95791.69;5094976;28;20185;-66
2022/10/07 08:26:20;;;;;;;1999.90;999.90;;;;;;;14.87;100.00;95792.19;5095727;28;20176;-58
2022/10/07 08:28:47;;;;;;;1999.90;999.90;;;;;;;14.99;100.00;95788.81;5095345;28;20184;-68
2022/10/07 08:31:16;;;;;;;1999.90;999.90;;;;;;;15.09;100.00;95790.59;5095403;28;20275;-69
2022/10/07 08:33:43;;;;;;;1999.90;999.90;;;;;;;15.10;100.00;95783.91;5095814;28;20172;-68
2022/10/07 08:36:15;;;;;;;1999.90;999.90;;;;;;;15.13;100.00;95772.06;5095438;28;20208;-67
2022/10/07 08:38:41;;;;;;;1999.90;999.90;;;;;;;15.25;100.00;95774.16;5095339;28;20313;-67
2022/10/07 08:41:16;;;;;;;1999.90;999.90;;;;;;;15.19;100.00;95775.84;5095439;28;20181;-66
2022/10/07 08:43:48;;;;;;;1999.90;999.90;;;;;;;15.24;100.00;95772.63;5095549;28;20180;-66
2022/10/07 08:46:28;;;;;;;1999.90;999.90;;;;;;;15.24;100.00;95761.59;5095859;28;20180;-60
2022/10/07 08:48:59;;;;;;;1999.90;999.90;;;;;;;15.29;100.00;95755.59;5095056;28;20208;-61
2022/10/07 08:51:49;;;;;;;1999.90;999.90;;;;;;;15.36;100.00;95752.72;5096180;28;20188;-61
2022/10/07 08:54:26;;;;;;;1999.90;999.90;;;;;;;15.37;100.00;95765.28;5094803;28;20172;-61
2022/10/07 08:56:54;;;;;;;1999.90;999.90;;;;;;;15.43;100.00;95755.34;5095362;28;20247;-62
2022/10/07 08:59:22;;;;;;;1999.90;999.90;;;;;;;15.46;100.00;95757.25;5095610;28;20180;-61
2022/10/07 09:02:09;;;;;;;1999.90;999.90;;;;;;;15.54;100.00;95750.38;5095062;28;20177;-57
2022/10/07 09:04:56;;;;;;;1999.90;999.90;;;;;;;15.46;100.00;95746.22;5095213;28;20271;-55
2022/10/07 09:07:35;;;;;;;1999.90;999.90;;;;;;;15.46;100.00;95754.50;5094748;28;20205;-57
2022/10/07 09:10:24;;;;;;;1999.90;999.90;;;;;;;15.27;100.00;95749.72;5095536;28;20176;-58
2022/10/07 09:13:19;;;;;;;1999.90;999.90;;;;;;;15.36;100.00;95746.44;5087562;28;20196;-56
2022/10/07 09:16:05;;;;;;;1999.90;999.90;;;;;;;15.37;100.00;95742.50;5094735;28;20224;-56
2022/10/07 09:18:41;;;;;;;1999.90;999.90;;;;;;;15.45;100.00;95749.41;5094784;28;20279;-58
2022/10/07 09:21:22;;;;;;;1999.90;999.90;;;;;;;15.45;100.00;95743.91;5094880;28;20184;-54
2022/10/07 09:23:54;;;;;;;1999.90;999.90;;;;;;;15.63;100.00;95753.31;5095321;28;20176;-58
2022/10/07 09:26:20;;;;;;;1999.90;999.90;;;;;;;15.66;100.00;95746.22;5094403;28;20176;-57
2022/10/07 09:28:45;;;;;;;1999.90;999.90;;;;;;;15.66;100.00;95744.22;5094608;28;20174;-58
2022/10/07 09:31:13;;;;;;;1999.90;999.90;;;;;;;15.68;100.00;95735.53;5094188;28;20233;-58
2022/10/07 09:33:48;;;;;;;1999.90;999.90;;;;;;;15.74;100.00;95731.81;5094325;28;20625;-58
2022/10/07 09:36:17;;;;;;;1999.90;999.90;;;;;;;15.89;100.00;95719.28;5093093;28;20225;-58
2022/10/07 09:38:44;;;;;;;1999.90;999.90;;;;;;;16.16;100.00;95719.81;5094147;28;20184;-61
2022/10/07 09:41:16;;;;;;;1999.90;999.90;;;;;;;16.28;100.00;95708.09;5093914;28;20176;-55
2022/10/07 09:44:06;;;;;;;1999.90;999.90;;;;;;;16.46;100.00;95709.66;5094846;28;20169;-56
2022/10/07 09:46:50;;;;;;;1999.90;999.90;;;;;;;16.59;100.00;95707.72;5094782;28;20173;-57
2022/10/07 09:49:28;;;;;;;1999.90;999.90;;;;;;;16.56;100.00;95705.84;5094609;28;20169;-56
2022/10/07 09:52:24;;;;;;;1999.90;999.90;;;;;;;16.63;100.00;95702.91;5094468;28;20180;-55
2022/10/07 09:54:55;;;;;;;1999.90;999.90;;;;;;;16.63;100.00;95697.38;5094284;28;20196;-55
2022/10/07 09:57:33;;;;;;;1999.90;999.90;;;;;;;16.66;100.00;95694.53;5093911;28;20177;-64
2022/10/07 10:00:10;;;;;;;1999.90;999.90;;;;;;;16.61;100.00;95699.81;5094018;28;20289;-58
2022/10/07 10:02:36;;;;;;;1999.90;999.90;;;;;;;16.56;100.00;95703.06;5093413;28;20226;-57
2022/10/07 10:05:02;;;;;;;1999.90;999.90;;;;;;;16.59;100.00;95699.47;5093687;28;20190;-56
2022/10/07 10:07:32;;;;;;;1999.90;999.90;;;;;;;16.64;100.00;95707.22;5093823;28;20184;-57
2022/10/07 10:10:03;;;;;;;1999.90;999.90;;;;;;;16.66;100.00;95699.28;5093916;28;20217;-57
2022/10/07 10:12:32;;;;;;;1999.90;999.90;;;;;;;16.60;100.00;95695.50;5093479;28;20168;-59
2022/10/07 10:14:59;;;;;;;1999.90;999.90;;;;;;;16.56;100.00;95700.31;5093639;28;20216;-59
2022/10/07 10:17:34;;;;;;;1999.90;999.90;;;;;;;16.39;100.00;95692.06;5094021;28;20200;-64
2022/10/07 10:20:19;;;;;;;1999.90;999.90;;;;;;;16.42;100.00;95707.78;5094032;28;20176;-60
2022/10/07 10:22:45;;;;;;;1999.90;999.90;;;;;;;16.46;100.00;95695.88;5079902;28;20180;-61
2022/10/07 10:28:05;;;;;;;1999.90;999.90;;;;;;;16.45;100.00;95700.59;5094943;28;20172;-61
2022/10/07 10:30:36;;;;;;;1999.90;999.90;;;;;;;16.61;100.00;95691.53;5093723;28;20171;-61
2022/10/07 10:33:28;;;;;;;1999.90;999.90;;;;;;;16.50;100.00;95696.56;5094263;28;20286;-60
2022/10/07 10:36:19;;;;;;;1999.90;999.90;;;;;;;16.81;100.00;95687.44;5093138;28;20231;-67
2022/10/07 10:39:00;;;;;;;1999.90;999.90;;;;;;;17.03;100.00;95676.56;5093228;28;20164;-59
2022/10/07 10:41:45;;;;;;;1999.90;999.90;;;;;;;17.08;100.00;95660.22;5093927;28;20187;-55
2022/10/07 10:44:31;;;;;;;1999.90;999.90;;;;;;;17.01;100.00;95660.44;5093919;28;20168;-58
2022/10/07 10:47:21;;;;;;;1999.90;999.90;;;;;;;16.99;100.00;95662.09;5094716;28;20172;-58
2022/10/07 10:49:54;;;;;;;1999.90;999.90;;;;;;;17.09;100.00;95652.75;5098053;28;20169;-56
2022/10/07 10:52:34;;;;;;;1999.90;999.90;;;;;;;17.56;100.00;95634.38;5098021;28;20169;-56
2022/10/07 10:55:16;;;;;;;1999.90;999.90;;;;;;;17.87;100.00;95627.06;5097809;28;20207;-57
2022/10/07 10:58:04;;;;;;;1999.90;999.90;;;;;;;18.67;100.00;95591.09;5097960;28;20173;-70
2022/10/07 11:00:57;;;;;;;1999.90;999.90;;;;;;;19.03;100.00;95574.72;5098038;28;20172;-72
2022/10/07 11:03:50;;;;;;;1999.90;999.90;;;;;;;19.53;100.00;95540.34;5089401;28;20199;-70
2022/10/07 11:06:18;;;;;;;1999.90;999.90;;;;;;;19.66;100.00;95499.41;5097434;28;20176;-70
2022/10/07 11:08:46;;;;;;;1999.90;999.90;;;;;;;19.49;100.00;95468.44;5097032;28;20195;-72